createdAt,value
2024-01-05T00:02:27.206Z,92865.09
2024-01-05T00:07:30.026Z,92857.75
2024-01-05T00:12:31.673Z,92850.84
2024-01-05T00:17:33.262Z,92851.50
2024-01-05T00:22:36.182Z,92836.97
2024-01-05T00:27:37.764Z,92839.78
2024-01-05T00:32:39.389Z,92843.31
2024-01-05T00:37:42.284Z,92840.03
2024-01-05T00:42:43.884Z,92844.19
2024-01-05T00:47:45.485Z,92830.00
2024-01-05T00:52:48.374Z,92807.53
2024-01-05T00:57:49.870Z,92800.44
2024-01-05T01:02:51.602Z,92812.66
2024-01-05T01:07:54.461Z,92821.34
2024-01-05T01:12:55.942Z,92842.78
2024-01-05T01:17:57.583Z,92832.00
2024-01-05T01:23:00.535Z,92811.66
2024-01-05T01:28:02.074Z,92809.34
2024-01-05T01:33:04.267Z,92809.34
2024-01-05T01:38:07.283Z,92809.72
2024-01-05T01:43:18.134Z,92802.97
2024-01-05T01:48:20.880Z,92804.84
2024-01-05T01:53:25.865Z,92810.44
2024-01-05T01:58:27.496Z,92807.94
2024-01-05T02:03:29.257Z,92795.16
2024-01-05T02:08:32.218Z,92773.63
2024-01-05T02:13:33.829Z,92753.09
2024-01-05T02:18:35.627Z,92742.97
2024-01-05T02:23:38.657Z,92728.03
2024-01-05T02:28:40.194Z,92713.47
2024-01-05T02:33:41.854Z,92712.09
2024-01-05T02:38:44.870Z,92702.44
2024-01-05T02:43:46.465Z,92701.84
2024-01-05T02:48:48.312Z,92699.09
2024-01-05T02:53:51.241Z,92696.34
2024-01-05T02:58:53.645Z,92699.13
2024-01-05T03:03:55.852Z,92689.84
2024-01-05T03:08:58.774Z,92680.75
2024-01-05T03:14:00.324Z,92679.16
2024-01-05T03:19:02.099Z,92668.88
2024-01-05T03:24:06.339Z,92667.88
2024-01-05T03:29:07.851Z,92652.06
2024-01-05T03:34:09.559Z,92656.22
2024-01-05T03:39:12.734Z,92653.03
2024-01-05T03:44:14.302Z,92649.91
2024-01-05T03:49:16.349Z,92662.28
2024-01-05T03:54:19.326Z,92665.97
2024-01-05T03:59:20.822Z,92655.88
2024-01-05T04:04:22.455Z,92648.00
2024-01-05T04:09:25.573Z,92661.81
2024-01-05T04:14:27.153Z,92675.63
2024-01-05T04:19:28.873Z,92670.66
2024-01-05T04:24:32.001Z,92664.91
2024-01-05T04:29:33.677Z,92633.72
2024-01-05T04:34:35.486Z,92626.59
2024-01-05T04:39:38.468Z,92620.91
2024-01-05T04:44:40.051Z,92627.84
2024-01-05T04:49:41.646Z,92619.16
2024-01-05T04:54:44.611Z,92617.19
2024-01-05T04:59:46.192Z,92615.19
2024-01-05T05:04:48.905Z,92602.59
2024-01-05T05:09:51.886Z,92611.28
2024-01-05T05:14:53.495Z,92592.94
2024-01-05T05:19:55.013Z,92599.84
2024-01-05T05:24:57.920Z,92605.81
2024-01-05T05:29:59.619Z,92611.19
2024-01-05T05:35:01.315Z,92609.59
2024-01-05T05:40:05.029Z,92618.06
2024-01-05T05:45:07.766Z,92626.75
2024-01-05T05:50:09.690Z,92626.34
2024-01-05T05:55:12.570Z,92613.78
2024-01-05T06:00:14.947Z,92614.75
2024-01-05T06:05:16.562Z,92634.19
2024-01-05T06:10:19.503Z,92636.31
2024-01-05T06:15:21.061Z,92635.28
2024-01-05T06:20:22.643Z,92626.38
2024-01-05T06:25:25.516Z,92627.97
2024-01-05T06:30:27.125Z,92641.16
2024-01-05T06:35:28.740Z,92655.09
2024-01-05T06:40:31.643Z,92659.25
2024-01-05T06:45:33.189Z,92651.31
2024-01-05T06:50:37.386Z,92634.69
2024-01-05T06:55:40.572Z,92641.06
2024-01-05T07:00:42.193Z,92637.13
2024-01-05T07:05:43.829Z,92628.44
2024-01-05T07:10:46.706Z,92631.28
2024-01-05T07:15:48.292Z,92635.25
2024-01-05T07:20:49.785Z,92639.59
2024-01-05T07:25:52.621Z,92632.06
2024-01-05T07:30:54.254Z,92624.91
2024-01-05T07:35:55.825Z,92634.38
2024-01-05T07:40:58.678Z,92636.34
2024-01-05T07:46:02.790Z,92633.59
2024-01-05T07:51:04.893Z,92634.75
2024-01-05T07:56:08.846Z,92636.16
2024-01-05T08:01:15.116Z,92637.09
2024-01-05T08:06:16.865Z,92636.66
2024-01-05T08:11:19.784Z,92634.53
2024-01-05T08:16:21.355Z,92626.59
2024-01-05T08:21:22.974Z,92631.75
2024-01-05T08:26:25.901Z,92628.81
2024-01-05T08:31:27.620Z,92629.41
2024-01-05T08:36:29.362Z,92630.66
2024-01-05T08:41:32.404Z,92620.84
2024-01-05T08:46:33.956Z,92615.94
2024-01-05T08:51:41.981Z,92611.88
2024-01-05T08:56:44.844Z,92611.13
2024-01-05T09:01:46.528Z,92604.84
2024-01-05T09:06:48.233Z,92611.09
2024-01-05T09:11:51.212Z,92623.81
2024-01-05T09:16:52.806Z,92632.78
2024-01-05T09:21:54.364Z,92627.31
2024-01-05T09:26:57.405Z,92627.34
2024-01-05T09:31:59.174Z,92640.22
2024-01-05T09:37:00.770Z,92636.88
2024-01-05T09:42:04.083Z,92639.09
2024-01-05T09:47:06.986Z,92647.41
2024-01-05T09:52:10.819Z,92634.97
2024-01-05T09:57:17.530Z,92619.97
2024-01-05T10:02:25.807Z,92628.47
2024-01-05T10:07:27.420Z,92625.34
2024-01-05T10:12:30.411Z,92635.44
2024-01-05T10:17:31.958Z,92619.38
2024-01-05T10:22:33.498Z,92617.22
2024-01-05T10:27:36.452Z,92615.22
2024-01-05T10:32:37.990Z,92617.22
2024-01-05T10:37:39.538Z,92611.28
2024-01-05T10:42:42.496Z,92613.25
2024-01-05T10:47:47.334Z,92603.38
2024-01-05T10:52:49.176Z,92600.81
2024-01-05T10:57:52.087Z,92591.50
2024-01-05T11:03:04.185Z,92597.81
2024-01-05T11:08:06.380Z,92592.28
2024-01-05T11:13:36.859Z,92599.00
2024-01-05T11:18:57.669Z,92582.16
2024-01-05T11:23:59.855Z,92565.72
2024-01-05T11:29:03.500Z,92564.94
2024-01-05T11:34:05.094Z,92544.75
2024-01-05T11:39:06.751Z,92549.91
2024-01-05T11:44:32.447Z,92546.72
2024-01-05T11:49:37.381Z,92554.44
2024-01-05T11:54:39.222Z,92538.81
2024-01-05T11:59:42.168Z,92545.56
2024-01-05T12:04:46.653Z,92539.81
2024-01-05T12:09:52.253Z,92534.84
2024-01-05T12:14:55.177Z,92549.72
2024-01-05T12:20:07.253Z,92544.34
2024-01-05T12:25:09.534Z,92546.31
2024-01-05T12:30:13.356Z,92535.84
2024-01-05T12:35:15.302Z,92537.63
2024-01-05T12:40:22.657Z,92529.88
2024-01-05T12:45:27.472Z,92523.78
2024-01-05T12:50:30.329Z,92531.47
2024-01-05T12:55:33.302Z,92519.03
2024-01-05T13:00:41.398Z,92522.38
2024-01-05T13:05:43.454Z,92523.78
2024-01-05T13:10:45.050Z,92536.44
2024-01-05T13:15:47.964Z,92543.19
2024-01-05T13:20:49.586Z,92542.00
2024-01-05T13:25:51.608Z,92549.13
2024-01-05T13:30:54.579Z,92545.16
2024-01-05T13:35:56.234Z,92543.16
2024-01-05T13:40:57.849Z,92549.50
2024-01-05T13:46:00.753Z,92558.81
2024-01-05T13:51:02.371Z,92549.88
2024-01-05T13:56:04.222Z,92556.81
2024-01-05T14:01:07.169Z,92553.47
2024-01-05T14:06:10.283Z,92545.13
2024-01-05T14:11:12.549Z,92549.09
2024-01-05T14:16:15.466Z,92544.94
2024-01-05T14:21:21.681Z,92546.13
2024-01-05T14:26:23.981Z,92555.03
2024-01-05T14:31:31.431Z,92548.72
2024-01-05T14:36:33.058Z,92569.09
2024-01-05T14:41:34.674Z,92566.53
2024-01-05T14:46:37.504Z,92580.78
2024-01-05T14:51:39.099Z,92578.81
2024-01-05T14:56:40.613Z,92583.16
2024-01-05T15:01:43.622Z,92579.22
2024-01-05T15:06:45.358Z,92572.47
2024-01-05T15:11:47.023Z,92578.19
2024-01-05T15:16:49.896Z,92574.25
2024-01-05T15:21:51.609Z,92567.72
2024-01-05T15:26:53.215Z,92562.38
2024-01-05T15:31:56.174Z,92562.19
2024-01-05T15:36:57.681Z,92552.06
2024-01-05T15:41:59.325Z,92562.56
2024-01-05T15:47:02.185Z,92555.44
2024-01-05T15:52:04.457Z,92559.78
2024-01-05T15:57:06.206Z,92549.09
2024-01-05T16:02:09.176Z,92548.69
2024-01-05T16:07:10.740Z,92559.38
2024-01-05T16:12:12.338Z,92551.28
2024-01-05T16:17:15.276Z,92559.19
2024-01-05T16:22:16.840Z,92554.63
2024-01-05T16:27:18.457Z,92560.97
2024-01-05T16:32:21.345Z,92551.88
2024-01-05T16:37:22.886Z,92563.34
2024-01-05T16:42:24.517Z,92546.34
2024-01-05T16:47:27.516Z,92548.53
2024-01-05T16:52:29.080Z,92541.97
2024-01-05T16:57:30.668Z,92545.16
2024-01-05T17:02:33.646Z,92541.38
2024-01-05T17:07:35.303Z,92531.69
2024-01-05T17:12:36.922Z,92527.34
2024-01-05T17:17:40.000Z,92523.00
2024-01-05T17:22:41.553Z,92531.88
2024-01-05T17:27:43.216Z,92537.22
2024-01-05T17:32:46.425Z,92540.78
2024-01-05T17:37:48.249Z,92558.59
2024-01-05T17:42:49.814Z,92555.03
2024-01-05T17:47:52.744Z,92557.00
2024-01-05T17:52:54.360Z,92562.75
2024-01-05T17:57:55.988Z,92563.34
2024-01-05T18:02:58.834Z,92570.47
2024-01-05T18:08:00.398Z,92580.97
2024-01-05T18:13:02.021Z,92587.88
2024-01-05T18:18:05.752Z,92588.25
2024-01-05T18:23:07.392Z,92577.41
2024-01-05T18:28:08.997Z,92581.94
2024-01-05T18:33:12.052Z,92585.09
2024-01-05T18:38:13.728Z,92576.38
2024-01-05T18:43:15.288Z,92580.34
2024-01-05T18:48:18.344Z,92575.41
2024-01-05T18:53:20.018Z,92568.09
2024-01-05T18:58:21.559Z,92583.53
2024-01-05T19:03:24.842Z,92590.25
2024-01-05T19:08:26.708Z,92596.59
2024-01-05T19:13:28.622Z,92607.47
2024-01-05T19:18:31.656Z,92603.69
2024-01-05T19:23:33.423Z,92599.72
2024-01-05T19:28:34.976Z,92602.13
2024-01-05T19:33:38.838Z,92608.81
2024-01-05T19:38:40.461Z,92606.84
2024-01-05T19:43:41.950Z,92596.94
2024-01-05T19:48:44.928Z,92598.53
2024-01-05T19:53:46.505Z,92591.41
2024-01-05T19:58:48.116Z,92611.72
2024-01-05T20:03:51.109Z,92615.69
2024-01-05T20:08:52.765Z,92612.31
2024-01-05T20:13:54.279Z,92616.28
2024-01-05T20:18:57.382Z,92614.69
2024-01-05T20:23:59.509Z,92607.97
2024-01-05T20:29:01.040Z,92600.06
2024-01-05T20:34:03.989Z,92600.84
2024-01-05T20:39:05.761Z,92604.03
2024-01-05T20:44:09.043Z,92600.06
2024-01-05T20:49:14.971Z,92593.75
2024-01-05T20:54:16.753Z,92581.31
2024-01-05T20:59:18.336Z,92582.28
2024-01-05T21:04:21.540Z,92575.38
2024-01-05T21:09:23.206Z,92567.66
2024-01-05T21:14:24.786Z,92566.44
2024-01-05T21:19:27.757Z,92560.13
2024-01-05T21:24:29.395Z,92555.19
2024-01-05T21:29:30.892Z,92565.06
2024-01-05T21:34:33.843Z,92576.34
2024-01-05T21:39:35.804Z,92564.09
2024-01-05T21:44:37.363Z,92564.47
2024-01-05T21:49:40.759Z,92561.31
2024-01-05T21:54:42.468Z,92562.47
2024-01-05T21:59:44.150Z,92562.44
2024-01-05T22:04:47.000Z,92559.69
2024-01-05T22:09:48.637Z,92556.50
2024-01-05T22:14:50.298Z,92560.06
2024-01-05T22:19:53.344Z,92552.53
2024-01-05T22:24:55.090Z,92565.97
2024-01-05T22:29:56.656Z,92565.38
2024-01-05T22:34:59.690Z,92577.41
2024-01-05T22:40:01.335Z,92578.22
2024-01-05T22:45:02.876Z,92569.94
2024-01-05T22:50:06.676Z,92566.75
2024-01-05T22:55:09.193Z,92565.53
2024-01-05T23:00:11.660Z,92561.16
2024-01-05T23:05:15.735Z,92565.50
2024-01-05T23:10:17.341Z,92563.13
2024-01-05T23:15:19.020Z,92569.47
2024-01-05T23:20:22.183Z,92578.94
2024-01-05T23:25:23.847Z,92573.41
2024-01-05T23:30:25.706Z,92589.00
2024-01-05T23:35:28.659Z,92586.56
2024-01-05T23:40:30.260Z,92589.94
2024-01-05T23:45:32.059Z,92594.69
2024-01-05T23:50:34.966Z,92594.69
2024-01-05T23:55:36.809Z,92598.06
